sensor_id;sensor_type;location;lat;lon;timestamp;pressure;altitude;pressure_sealevel;temperature;humidity
6132;BME280;3097;42.692;23.278;2023-01-26T00:00:52;95462.22;;;0.55;87.94
6132;BME280;3097;42.692;23.278;2023-01-26T00:03:18;95474.84;;;0.65;88.05
6132;BME280;3097;42.692;23.278;2023-01-26T00:05:44;95489.63;;;0.52;88.12
6132;BME280;3097;42.692;23.278;2023-01-26T00:08:10;95468.69;;;0.50;88.75
6132;BME280;3097;42.692;23.278;2023-01-26T00:10:39;95334.88;;;-0.27;87.66
6132;BME280;3097;42.692;23.278;2023-01-26T00:13:06;95479.25;;;0.63;87.99
6132;BME280;3097;42.692;23.278;2023-01-26T00:15:33;95448.03;;;0.45;88.00
6132;BME280;3097;42.692;23.278;2023-01-26T00:18:02;95479.56;;;0.60;88.09
6132;BME280;3097;42.692;23.278;2023-01-26T00:20:28;95487.94;;;0.78;86.89
6132;BME280;3097;42.692;23.278;2023-01-26T00:22:54;95490.63;;;0.76;86.76
6132;BME280;3097;42.692;23.278;2023-01-26T00:25:20;95482.94;;;0.68;86.98
6132;BME280;3097;42.692;23.278;2023-01-26T00:27:45;95461.75;;;0.52;87.20
6132;BME280;3097;42.692;23.278;2023-01-26T00:30:11;95464.47;;;0.41;87.29
6132;BME280;3097;42.692;23.278;2023-01-26T00:32:36;95467.72;;;0.33;88.65
6132;BME280;3097;42.692;23.278;2023-01-26T00:35:03;95451.00;;;0.40;88.39
6132;BME280;3097;42.692;23.278;2023-01-26T00:37:29;95445.03;;;0.31;88.25
6132;BME280;3097;42.692;23.278;2023-01-26T00:39:55;95433.88;;;0.24;88.61
6132;BME280;3097;42.692;23.278;2023-01-26T00:42:20;95455.53;;;0.19;88.30
6132;BME280;3097;42.692;23.278;2023-01-26T00:44:48;95451.28;;;0.19;88.88
6132;BME280;3097;42.692;23.278;2023-01-26T00:47:14;95448.50;;;0.30;88.19
6132;BME280;3097;42.692;23.278;2023-01-26T00:49:39;95441.22;;;0.27;88.33
6132;BME280;3097;42.692;23.278;2023-01-26T00:52:05;95415.00;;;0.19;88.73
6132;BME280;3097;42.692;23.278;2023-01-26T00:54:31;95446.06;;;0.38;87.72
6132;BME280;3097;42.692;23.278;2023-01-26T00:56:56;95443.91;;;0.44;87.69
6132;BME280;3097;42.692;23.278;2023-01-26T00:59:22;95416.66;;;0.28;87.85
6132;BME280;3097;42.692;23.278;2023-01-26T01:01:48;95435.28;;;0.54;87.67
6132;BME280;3097;42.692;23.278;2023-01-26T01:04:15;95409.69;;;0.48;87.00
6132;BME280;3097;42.692;23.278;2023-01-26T01:06:41;95432.31;;;0.59;86.60
6132;BME280;3097;42.692;23.278;2023-01-26T01:09:06;95387.31;;;0.25;87.27
6132;BME280;3097;42.692;23.278;2023-01-26T01:11:32;95425.44;;;0.51;87.41
6132;BME280;3097;42.692;23.278;2023-01-26T01:13:58;95421.84;;;0.62;87.58
6132;BME280;3097;42.692;23.278;2023-01-26T01:16:23;95432.66;;;0.64;87.00
6132;BME280;3097;42.692;23.278;2023-01-26T01:18:52;95425.72;;;0.66;86.59
6132;BME280;3097;42.692;23.278;2023-01-26T01:21:18;95387.25;;;0.35;86.85
6132;BME280;3097;42.692;23.278;2023-01-26T01:23:44;95414.63;;;0.67;87.04
6132;BME280;3097;42.692;23.278;2023-01-26T01:26:09;95418.97;;;0.74;86.48
6132;BME280;3097;42.692;23.278;2023-01-26T01:28:35;95428.19;;;0.84;86.18
6132;BME280;3097;42.692;23.278;2023-01-26T01:31:19;95417.16;;;0.67;86.29
6132;BME280;3097;42.692;23.278;2023-01-26T01:33:44;95411.13;;;0.68;86.75
6132;BME280;3097;42.692;23.278;2023-01-26T01:36:12;95400.59;;;0.81;86.56
6132;BME280;3097;42.692;23.278;2023-01-26T01:38:38;95413.78;;;0.84;85.05
6132;BME280;3097;42.692;23.278;2023-01-26T01:41:04;95399.41;;;0.67;85.56
6132;BME280;3097;42.692;23.278;2023-01-26T01:43:30;95368.19;;;0.31;85.70
6132;BME280;3097;42.692;23.278;2023-01-26T01:45:58;95407.50;;;0.53;86.17
6132;BME280;3097;42.692;23.278;2023-01-26T01:50:58;95409.75;;;0.56;86.09
6132;BME280;3097;42.692;23.278;2023-01-26T01:53:29;95405.84;;;0.61;86.20
6132;BME280;3097;42.692;23.278;2023-01-26T01:56:00;95402.28;;;0.54;85.84
6132;BME280;3097;42.692;23.278;2023-01-26T01:58:28;95394.19;;;0.51;85.87
6132;BME280;3097;42.692;23.278;2023-01-26T02:00:56;95393.88;;;0.54;86.46
6132;BME280;3097;42.692;23.278;2023-01-26T02:03:24;95307.66;;;0.10;86.02
6132;BME280;3097;42.692;23.278;2023-01-26T02:06:07;95402.28;;;0.72;84.63
6132;BME280;3097;42.692;23.278;2023-01-26T02:08:38;95404.97;;;0.70;84.30
6132;BME280;3097;42.692;23.278;2023-01-26T02:11:07;95383.75;;;0.54;84.49
6132;BME280;3097;42.692;23.278;2023-01-26T02:13:33;95381.53;;;0.33;85.20
6132;BME280;3097;42.692;23.278;2023-01-26T02:16:00;95376.59;;;0.31;85.75
6132;BME280;3097;42.692;23.278;2023-01-26T02:18:26;95383.84;;;0.26;85.85
6132;BME280;3097;42.692;23.278;2023-01-26T02:20:56;95376.44;;;0.15;86.69
6132;BME280;3097;42.692;23.278;2023-01-26T02:26:19;95355.22;;;0.16;86.71
6132;BME280;3097;42.692;23.278;2023-01-26T02:31:29;95344.59;;;-0.05;87.01
6132;BME280;3097;42.692;23.278;2023-01-26T02:33:55;95338.16;;;-0.17;87.77
6132;BME280;3097;42.692;23.278;2023-01-26T02:36:23;95342.66;;;-0.11;87.80
6132;BME280;3097;42.692;23.278;2023-01-26T02:41:49;95348.94;;;0.03;87.37
6132;BME280;3097;42.692;23.278;2023-01-26T02:44:33;95338.53;;;0.06;87.14
6132;BME280;3097;42.692;23.278;2023-01-26T02:46:59;95325.06;;;0.05;86.52
6132;BME280;3097;42.692;23.278;2023-01-26T02:49:24;95220.78;;;-0.44;85.85
6132;BME280;3097;42.692;23.278;2023-01-26T02:52:08;95328.94;;;0.17;86.16
6132;BME280;3097;42.692;23.278;2023-01-26T02:54:34;95323.22;;;0.15;86.60
6132;BME280;3097;42.692;23.278;2023-01-26T02:57:17;95333.28;;;0.25;86.22
6132;BME280;3097;42.692;23.278;2023-01-26T02:59:43;95322.88;;;0.28;86.15
6132;BME280;3097;42.692;23.278;2023-01-26T03:02:09;95328.16;;;0.34;86.09
6132;BME280;3097;42.692;23.278;2023-01-26T03:04:34;95314.53;;;0.35;85.63
6132;BME280;3097;42.692;23.278;2023-01-26T03:07:00;95312.22;;;0.24;86.22
6132;BME280;3097;42.692;23.278;2023-01-26T03:09:25;95314.41;;;0.19;86.95
6132;BME280;3097;42.692;23.278;2023-01-26T03:11:51;95308.31;;;0.12;87.44
6132;BME280;3097;42.692;23.278;2023-01-26T03:14:17;95305.25;;;0.26;87.03
6132;BME280;3097;42.692;23.278;2023-01-26T03:16:42;95296.22;;;0.24;87.67
6132;BME280;3097;42.692;23.278;2023-01-26T03:19:10;95290.16;;;0.43;86.75
6132;BME280;3097;42.692;23.278;2023-01-26T03:21:54;95283.16;;;0.36;86.39
6132;BME280;3097;42.692;23.278;2023-01-26T03:24:39;95285.69;;;0.36;86.04
6132;BME280;3097;42.692;23.278;2023-01-26T03:27:23;95291.59;;;0.19;86.68
6132;BME280;3097;42.692;23.278;2023-01-26T03:29:51;95288.47;;;0.25;86.31
6132;BME280;3097;42.692;23.278;2023-01-26T03:32:16;95287.97;;;0.22;87.08
6132;BME280;3097;42.692;23.278;2023-01-26T03:34:42;95250.91;;;-0.15;87.15
6132;BME280;3097;42.692;23.278;2023-01-26T03:37:07;95285.09;;;-0.01;87.76
6132;BME280;3097;42.692;23.278;2023-01-26T03:39:33;95254.63;;;-0.09;87.85
6132;BME280;3097;42.692;23.278;2023-01-26T03:42:31;95234.97;;;-0.15;87.79
6132;BME280;3097;42.692;23.278;2023-01-26T03:45:14;95282.91;;;0.22;87.29
6132;BME280;3097;42.692;23.278;2023-01-26T03:48:06;95276.97;;;0.13;87.21
6132;BME280;3097;42.692;23.278;2023-01-26T03:50:50;95261.38;;;0.00;87.92
6132;BME280;3097;42.692;23.278;2023-01-26T03:53:34;95274.38;;;0.05;88.63
6132;BME280;3097;42.692;23.278;2023-01-26T03:56:18;95258.25;;;0.06;87.88
6132;BME280;3097;42.692;23.278;2023-01-26T03:58:49;95240.84;;;0.11;87.85
6132;BME280;3097;42.692;23.278;2023-01-26T04:01:15;95254.75;;;0.33;87.07
6132;BME280;3097;42.692;23.278;2023-01-26T04:03:48;95254.34;;;0.46;86.15
6132;BME280;3097;42.692;23.278;2023-01-26T04:06:33;95253.38;;;0.38;86.37
6132;BME280;3097;42.692;23.278;2023-01-26T04:09:18;95255.28;;;0.36;86.59
6132;BME280;3097;42.692;23.278;2023-01-26T04:11:43;95251.81;;;0.46;86.45
6132;BME280;3097;42.692;23.278;2023-01-26T04:14:12;95251.81;;;0.46;86.46
6132;BME280;3097;42.692;23.278;2023-01-26T04:16:59;95235.38;;;0.24;86.70
6132;BME280;3097;42.692;23.278;2023-01-26T04:19:43;95234.97;;;0.11;87.72
6132;BME280;3097;42.692;23.278;2023-01-26T04:22:27;95224.03;;;0.10;87.35
6132;BME280;3097;42.692;23.278;2023-01-26T04:24:52;95209.16;;;0.07;88.03
6132;BME280;3097;42.692;23.278;2023-01-26T04:27:18;95218.69;;;0.13;87.91
6132;BME280;3097;42.692;23.278;2023-01-26T04:29:43;95210.69;;;0.00;87.72
6132;BME280;3097;42.692;23.278;2023-01-26T04:32:08;95182.44;;;-0.31;88.67
6132;BME280;3097;42.692;23.278;2023-01-26T04:34:34;95208.44;;;-0.03;88.57
6132;BME280;3097;42.692;23.278;2023-01-26T04:36:59;95197.97;;;-0.08;88.20
6132;BME280;3097;42.692;23.278;2023-01-26T04:39:25;95212.91;;;0.03;88.29
6132;BME280;3097;42.692;23.278;2023-01-26T04:41:50;95219.06;;;0.00;87.46
6132;BME280;3097;42.692;23.278;2023-01-26T04:44:16;95235.66;;;-0.05;87.95
6132;BME280;3097;42.692;23.278;2023-01-26T04:46:41;95221.91;;;-0.20;88.67
6132;BME280;3097;42.692;23.278;2023-01-26T04:49:07;95207.03;;;-0.41;88.84
6132;BME280;3097;42.692;23.278;2023-01-26T04:51:32;95214.84;;;-0.34;88.51
6132;BME280;3097;42.692;23.278;2023-01-26T04:53:58;95228.66;;;-0.29;88.71
6132;BME280;3097;42.692;23.278;2023-01-26T04:56:26;95227.38;;;-0.33;89.21
6132;BME280;3097;42.692;23.278;2023-01-26T04:58:53;95204.84;;;-0.36;88.69
6132;BME280;3097;42.692;23.278;2023-01-26T05:01:19;95216.78;;;-0.11;88.63
6132;BME280;3097;42.692;23.278;2023-01-26T05:03:45;95236.72;;;0.10;87.57
6132;BME280;3097;42.692;23.278;2023-01-26T05:06:11;95186.16;;;-0.17;87.21
6132;BME280;3097;42.692;23.278;2023-01-26T05:08:37;95209.16;;;0.07;86.76
6132;BME280;3097;42.692;23.278;2023-01-26T05:11:03;95236.44;;;0.13;86.71
6132;BME280;3097;42.692;23.278;2023-01-26T05:13:29;95216.00;;;0.15;86.77
6132;BME280;3097;42.692;23.278;2023-01-26T05:15:54;95223.44;;;0.16;86.65
6132;BME280;3097;42.692;23.278;2023-01-26T05:18:19;95218.97;;;0.10;86.60
6132;BME280;3097;42.692;23.278;2023-01-26T05:20:45;95209.78;;;0.09;86.89
6132;BME280;3097;42.692;23.278;2023-01-26T05:23:11;95214.91;;;0.17;86.48
6132;BME280;3097;42.692;23.278;2023-01-26T05:25:36;95222.34;;;0.19;86.52
6132;BME280;3097;42.692;23.278;2023-01-26T05:28:01;95218.03;;;0.11;86.52
6132;BME280;3097;42.692;23.278;2023-01-26T05:30:27;95212.25;;;0.01;86.95
6132;BME280;3097;42.692;23.278;2023-01-26T05:32:52;95210.72;;;0.08;87.43
6132;BME280;3097;42.692;23.278;2023-01-26T05:35:18;95214.47;;;0.22;87.54
6132;BME280;3097;42.692;23.278;2023-01-26T05:37:43;95222.06;;;0.22;86.69
6132;BME280;3097;42.692;23.278;2023-01-26T05:40:10;95216.34;;;0.20;86.88
6132;BME280;3097;42.692;23.278;2023-01-26T05:42:37;95201.94;;;0.20;86.44
6132;BME280;3097;42.692;23.278;2023-01-26T05:45:03;95214.94;;;0.25;87.11
6132;BME280;3097;42.692;23.278;2023-01-26T05:47:29;95194.00;;;0.23;86.29
6132;BME280;3097;42.692;23.278;2023-01-26T05:49:54;95199.41;;;0.20;86.77
6132;BME280;3097;42.692;23.278;2023-01-26T05:52:21;95209.59;;;0.28;86.01
6132;BME280;3097;42.692;23.278;2023-01-26T05:54:47;95196.06;;;0.20;85.88
6132;BME280;3097;42.692;23.278;2023-01-26T05:57:13;95214.28;;;0.23;85.80
6132;BME280;3097;42.692;23.278;2023-01-26T05:59:38;95214.28;;;0.23;86.50
6132;BME280;3097;42.692;23.278;2023-01-26T06:02:04;95213.72;;;0.29;86.34
6132;BME280;3097;42.692;23.278;2023-01-26T06:04:29;95216.94;;;0.39;85.94
6132;BME280;3097;42.692;23.278;2023-01-26T06:06:56;95215.38;;;0.47;85.13
6132;BME280;3097;42.692;23.278;2023-01-26T06:09:22;95210.63;;;0.44;85.09
6132;BME280;3097;42.692;23.278;2023-01-26T06:11:48;95198.50;;;0.29;85.11
6132;BME280;3097;42.692;23.278;2023-01-26T06:14:14;95197.81;;;0.19;86.02
6132;BME280;3097;42.692;23.278;2023-01-26T06:16:39;95175.47;;;0.15;85.55
6132;BME280;3097;42.692;23.278;2023-01-26T06:19:05;95188.66;;;0.26;85.96
6132;BME280;3097;42.692;23.278;2023-01-26T06:21:31;95194.94;;;0.48;85.41
6132;BME280;3097;42.692;23.278;2023-01-26T06:23:57;95191.56;;;0.39;85.48
6132;BME280;3097;42.692;23.278;2023-01-26T06:26:23;95175.19;;;0.26;85.15
6132;BME280;3097;42.692;23.278;2023-01-26T06:28:52;95178.84;;;0.31;85.86
6132;BME280;3097;42.692;23.278;2023-01-26T06:31:18;95190.66;;;0.49;85.47
6132;BME280;3097;42.692;23.278;2023-01-26T06:33:44;95076.78;;;-0.13;85.39
6132;BME280;3097;42.692;23.278;2023-01-26T06:36:12;95176.91;;;0.51;85.56
6132;BME280;3097;42.692;23.278;2023-01-26T06:38:40;95181.53;;;0.64;85.25
6132;BME280;3097;42.692;23.278;2023-01-26T06:41:09;95178.97;;;0.56;84.90
6132;BME280;3097;42.692;23.278;2023-01-26T06:43:35;95179.91;;;0.55;84.46
6132;BME280;3097;42.692;23.278;2023-01-26T06:46:01;95168.59;;;0.41;84.88
6132;BME280;3097;42.692;23.278;2023-01-26T06:48:29;95171.97;;;0.50;85.60
6132;BME280;3097;42.692;23.278;2023-01-26T06:50:57;95177.06;;;0.50;84.98
6132;BME280;3097;42.692;23.278;2023-01-26T06:53:33;95165.59;;;0.46;84.91
6132;BME280;3097;42.692;23.278;2023-01-26T06:55:59;95180.84;;;0.54;85.54
6132;BME280;3097;42.692;23.278;2023-01-26T06:58:24;95173.44;;;0.52;85.71
6132;BME280;3097;42.692;23.278;2023-01-26T07:00:50;95171.31;;;0.48;86.27
6132;BME280;3097;42.692;23.278;2023-01-26T07:03:16;95178.69;;;0.59;85.54
6132;BME280;3097;42.692;23.278;2023-01-26T07:05:41;95161.97;;;0.48;84.93
6132;BME280;3097;42.692;23.278;2023-01-26T07:08:07;95165.47;;;0.47;85.37
6132;BME280;3097;42.692;23.278;2023-01-26T07:10:35;95181.63;;;0.46;85.51
6132;BME280;3097;42.692;23.278;2023-01-26T07:13:03;95164.97;;;0.44;85.54
6132;BME280;3097;42.692;23.278;2023-01-26T07:15:29;95163.72;;;0.48;85.91
6132;BME280;3097;42.692;23.278;2023-01-26T07:17:56;95147.34;;;0.34;85.43
6132;BME280;3097;42.692;23.278;2023-01-26T07:20:21;95155.63;;;0.44;85.75
6132;BME280;3097;42.692;23.278;2023-01-26T07:22:47;95147.22;;;0.44;85.84
6132;BME280;3097;42.692;23.278;2023-01-26T07:25:14;95154.13;;;0.59;85.32
6132;BME280;3097;42.692;23.278;2023-01-26T07:27:40;95149.06;;;0.75;85.36
6132;BME280;3097;42.692;23.278;2023-01-26T07:30:06;95148.31;;;0.91;84.93
6132;BME280;3097;42.692;23.278;2023-01-26T07:32:31;95157.28;;;1.11;84.35
6132;BME280;3097;42.692;23.278;2023-01-26T07:34:57;95149.03;;;1.17;83.00
6132;BME280;3097;42.692;23.278;2023-01-26T07:37:29;95130.28;;;1.02;83.16
6132;BME280;3097;42.692;23.278;2023-01-26T07:39:55;95130.75;;;1.06;83.81
6132;BME280;3097;42.692;23.278;2023-01-26T07:42:21;95144.91;;;1.25;83.63
6132;BME280;3097;42.692;23.278;2023-01-26T07:44:47;95152.03;;;1.21;82.55
6132;BME280;3097;42.692;23.278;2023-01-26T07:47:12;95149.94;;;1.08;82.75
6132;BME280;3097;42.692;23.278;2023-01-26T07:49:39;95141.06;;;0.96;83.23
6132;BME280;3097;42.692;23.278;2023-01-26T07:52:05;95142.47;;;0.99;83.72
6132;BME280;3097;42.692;23.278;2023-01-26T07:54:30;95149.16;;;1.08;83.86
6132;BME280;3097;42.692;23.278;2023-01-26T07:56:58;95147.72;;;1.13;83.35
6132;BME280;3097;42.692;23.278;2023-01-26T07:59:23;95146.63;;;1.16;82.82
6132;BME280;3097;42.692;23.278;2023-01-26T08:01:49;95150.59;;;1.02;83.34
6132;BME280;3097;42.692;23.278;2023-01-26T08:04:15;95145.81;;;0.99;83.65
6132;BME280;3097;42.692;23.278;2023-01-26T08:06:43;95146.16;;;1.12;83.74
6132;BME280;3097;42.692;23.278;2023-01-26T08:09:09;95103.59;;;0.98;83.30
6132;BME280;3097;42.692;23.278;2023-01-26T08:11:34;95129.81;;;1.23;83.05
6132;BME280;3097;42.692;23.278;2023-01-26T08:14:00;95128.72;;;1.34;82.25
6132;BME280;3097;42.692;23.278;2023-01-26T08:16:25;95133.31;;;1.38;81.59
6132;BME280;3097;42.692;23.278;2023-01-26T08:18:51;95095.38;;;1.29;82.04
6132;BME280;3097;42.692;23.278;2023-01-26T08:21:18;95115.25;;;1.41;81.84
6132;BME280;3097;42.692;23.278;2023-01-26T08:23:48;95104.94;;;1.35;81.54
6132;BME280;3097;42.692;23.278;2023-01-26T08:26:14;95099.22;;;1.33;81.55
6132;BME280;3097;42.692;23.278;2023-01-26T08:28:42;95114.09;;;1.52;81.89
6132;BME280;3097;42.692;23.278;2023-01-26T08:31:16;95081.72;;;1.38;80.83
6132;BME280;3097;42.692;23.278;2023-01-26T08:33:45;95124.91;;;1.70;81.47
6132;BME280;3097;42.692;23.278;2023-01-26T08:36:12;95120.63;;;1.71;80.69
6132;BME280;3097;42.692;23.278;2023-01-26T08:38:38;95110.75;;;1.68;80.13
6132;BME280;3097;42.692;23.278;2023-01-26T08:41:04;95084.25;;;1.70;80.30
6132;BME280;3097;42.692;23.278;2023-01-26T08:43:29;95096.28;;;1.84;79.40
6132;BME280;3097;42.692;23.278;2023-01-26T08:45:57;95099.00;;;1.83;79.61
6132;BME280;3097;42.692;23.278;2023-01-26T08:48:23;95099.78;;;1.91;78.77
6132;BME280;3097;42.692;23.278;2023-01-26T08:50:56;95090.44;;;1.68;79.28
6132;BME280;3097;42.692;23.278;2023-01-26T08:53:23;95115.34;;;1.88;79.17
6132;BME280;3097;42.692;23.278;2023-01-26T08:55:49;95028.25;;;1.31;79.40
6132;BME280;3097;42.692;23.278;2023-01-26T08:58:15;95117.84;;;2.05;79.09
6132;BME280;3097;42.692;23.278;2023-01-26T09:00:40;95122.75;;;2.14;79.37
6132;BME280;3097;42.692;23.278;2023-01-26T09:03:06;95092.72;;;2.18;78.39
6132;BME280;3097;42.692;23.278;2023-01-26T09:05:36;95110.28;;;2.36;77.25
6132;BME280;3097;42.692;23.278;2023-01-26T09:08:03;95083.78;;;2.22;76.86
6132;BME280;3097;42.692;23.278;2023-01-26T09:10:29;95074.34;;;2.00;76.68
6132;BME280;3097;42.692;23.278;2023-01-26T09:12:56;95102.84;;;2.26;76.41
6132;BME280;3097;42.692;23.278;2023-01-26T09:15:22;95108.13;;;2.24;77.20
6132;BME280;3097;42.692;23.278;2023-01-26T09:17:48;95103.47;;;2.28;76.34
6132;BME280;3097;42.692;23.278;2023-01-26T09:20:14;95095.41;;;2.24;77.00
6132;BME280;3097;42.692;23.278;2023-01-26T09:22:39;95092.31;;;2.37;76.70
6132;BME280;3097;42.692;23.278;2023-01-26T09:25:05;95084.09;;;2.27;76.15
6132;BME280;3097;42.692;23.278;2023-01-26T09:27:31;95093.44;;;2.34;76.29
6132;BME280;3097;42.692;23.278;2023-01-26T09:29:56;95084.72;;;2.29;76.35
6132;BME280;3097;42.692;23.278;2023-01-26T09:32:22;95063.78;;;2.11;76.37
6132;BME280;3097;42.692;23.278;2023-01-26T09:34:47;95072.50;;;2.24;76.59
6132;BME280;3097;42.692;23.278;2023-01-26T09:37:13;95053.94;;;2.16;76.47
6132;BME280;3097;42.692;23.278;2023-01-26T09:39:39;95037.81;;;1.92;76.83
6132;BME280;3097;42.692;23.278;2023-01-26T09:42:36;95067.94;;;2.12;77.51
6132;BME280;3097;42.692;23.278;2023-01-26T09:45:20;95074.28;;;2.16;77.62
6132;BME280;3097;42.692;23.278;2023-01-26T09:50:47;95073.38;;;2.09;77.85
6132;BME280;3097;42.692;23.278;2023-01-26T09:53:21;95067.47;;;2.16;77.90
6132;BME280;3097;42.692;23.278;2023-01-26T09:55:50;95044.25;;;2.11;77.90
6132;BME280;3097;42.692;23.278;2023-01-26T09:58:37;95050.56;;;2.23;77.34
6132;BME280;3097;42.692;23.278;2023-01-26T10:01:04;95027.63;;;2.01;78.31
6132;BME280;3097;42.692;23.278;2023-01-26T10:03:45;95051.38;;;2.24;77.40
6132;BME280;3097;42.692;23.278;2023-01-26T10:06:22;95057.06;;;2.26;77.92
6132;BME280;3097;42.692;23.278;2023-01-26T10:08:51;95048.53;;;2.11;77.52
6132;BME280;3097;42.692;23.278;2023-01-26T10:11:25;95051.63;;;1.98;78.37
6132;BME280;3097;42.692;23.278;2023-01-26T10:13:58;95051.03;;;1.88;78.74
6132;BME280;3097;42.692;23.278;2023-01-26T10:16:27;95036.53;;;1.88;79.54
6132;BME280;3097;42.692;23.278;2023-01-26T10:18:59;95006.72;;;1.82;79.11
6132;BME280;3097;42.692;23.278;2023-01-26T10:21:32;95026.06;;;1.91;78.79
6132;BME280;3097;42.692;23.278;2023-01-26T10:24:00;95013.44;;;1.67;79.67
6132;BME280;3097;42.692;23.278;2023-01-26T10:26:29;95004.66;;;1.78;79.58
6132;BME280;3097;42.692;23.278;2023-01-26T10:28:55;94965.53;;;1.56;79.29
6132;BME280;3097;42.692;23.278;2023-01-26T10:31:26;94976.63;;;1.63;79.91
6132;BME280;3097;42.692;23.278;2023-01-26T10:33:58;94981.06;;;1.61;80.21
6132;BME280;3097;42.692;23.278;2023-01-26T10:36:28;94968.34;;;1.69;80.12
6132;BME280;3097;42.692;23.278;2023-01-26T10:39:02;94951.91;;;1.88;79.46
6132;BME280;3097;42.692;23.278;2023-01-26T10:41:28;94959.66;;;1.94;79.37
6132;BME280;3097;42.692;23.278;2023-01-26T10:44:00;94957.84;;;2.03;78.94
6132;BME280;3097;42.692;23.278;2023-01-26T10:46:38;94936.16;;;1.92;78.99
6132;BME280;3097;42.692;23.278;2023-01-26T10:51:38;94944.84;;;1.98;79.05
6132;BME280;3097;42.692;23.278;2023-01-26T10:54:26;94931.88;;;1.93;79.19
6132;BME280;3097;42.692;23.278;2023-01-26T10:57:01;94949.81;;;1.91;79.14
6132;BME280;3097;42.692;23.278;2023-01-26T10:59:42;94935.25;;;1.85;79.76
6132;BME280;3097;42.692;23.278;2023-01-26T11:04:40;94911.66;;;2.00;79.29
6132;BME280;3097;42.692;23.278;2023-01-26T11:10:16;94878.56;;;1.77;79.68
6132;BME280;3097;42.692;23.278;2023-01-26T11:12:42;94883.28;;;1.88;79.99
6132;BME280;3097;42.692;23.278;2023-01-26T11:15:16;94880.81;;;2.03;79.48
6132;BME280;3097;42.692;23.278;2023-01-26T11:36:24;94848.97;;;2.15;79.10
6132;BME280;3097;42.692;23.278;2023-01-26T11:41:51;94850.53;;;2.39;78.71
6132;BME280;3097;42.692;23.278;2023-01-26T11:44:30;94846.72;;;2.34;78.81
6132;BME280;3097;42.692;23.278;2023-01-26T11:47:16;94796.59;;;2.06;78.99
6132;BME280;3097;42.692;23.278;2023-01-26T11:50:03;94831.31;;;2.36;79.40
6132;BME280;3097;42.692;23.278;2023-01-26T11:56:06;94836.03;;;2.62;78.98
6132;BME280;3097;42.692;23.278;2023-01-26T11:58:33;94830.22;;;2.68;78.12
6132;BME280;3097;42.692;23.278;2023-01-26T12:01:18;94827.78;;;2.75;77.77
6132;BME280;3097;42.692;23.278;2023-01-26T12:03:49;94824.91;;;2.78;77.64
6132;BME280;3097;42.692;23.278;2023-01-26T12:06:33;94796.59;;;2.43;78.14
6132;BME280;3097;42.692;23.278;2023-01-26T12:09:04;94815.34;;;2.42;78.94
6132;BME280;3097;42.692;23.278;2023-01-26T12:11:38;94809.94;;;2.45;79.01
6132;BME280;3097;42.692;23.278;2023-01-26T12:14:28;94800.00;;;2.50;78.79
6132;BME280;3097;42.692;23.278;2023-01-26T12:19:57;94787.28;;;2.50;79.56
6132;BME280;3097;42.692;23.278;2023-01-26T12:22:40;94788.25;;;2.49;79.10
6132;BME280;3097;42.692;23.278;2023-01-26T12:25:33;94773.00;;;2.49;79.86
6132;BME280;3097;42.692;23.278;2023-01-26T12:33:31;94761.00;;;2.72;79.13
6132;BME280;3097;42.692;23.278;2023-01-26T12:42:22;94753.34;;;2.43;80.76
6132;BME280;3097;42.692;23.278;2023-01-26T12:44:56;94709.53;;;2.04;80.69
6132;BME280;3097;42.692;23.278;2023-01-26T12:47:47;94755.25;;;2.41;81.75
6132;BME280;3097;42.692;23.278;2023-01-26T12:50:37;94750.44;;;2.17;81.95
6132;BME280;3097;42.692;23.278;2023-01-26T12:53:15;94754.13;;;2.29;81.74
6132;BME280;3097;42.692;23.278;2023-01-26T12:55:50;94761.59;;;2.30;82.47
6132;BME280;3097;42.692;23.278;2023-01-26T12:58:23;94725.09;;;2.23;82.15
6132;BME280;3097;42.692;23.278;2023-01-26T13:01:03;94749.22;;;2.42;81.89
6132;BME280;3097;42.692;23.278;2023-01-26T13:03:34;94739.56;;;2.38;81.97
6132;BME280;3097;42.692;23.278;2023-01-26T13:11:03;94644.38;;;1.73;82.51
6132;BME280;3097;42.692;23.278;2023-01-26T13:13:54;94719.84;;;2.25;82.69
6132;BME280;3097;42.692;23.278;2023-01-26T13:18:55;94741.47;;;2.21;83.50
6132;BME280;3097;42.692;23.278;2023-01-26T13:24:36;94748.69;;;2.32;83.55
6132;BME280;3097;42.692;23.278;2023-01-26T13:26:50;94724.22;;;2.16;83.78
6132;BME280;3097;42.692;23.278;2023-01-26T13:34:39;94715.44;;;2.33;84.60
6132;BME280;3097;42.692;23.278;2023-01-26T13:37:12;94713.19;;;2.39;83.92
6132;BME280;3097;42.692;23.278;2023-01-26T13:39:41;94730.03;;;2.54;83.39
6132;BME280;3097;42.692;23.278;2023-01-26T13:42:34;94719.84;;;2.54;83.31
6132;BME280;3097;42.692;23.278;2023-01-26T13:45:04;94720.09;;;2.59;83.13
6132;BME280;3097;42.692;23.278;2023-01-26T13:47:42;94697.38;;;2.43;82.98
6132;BME280;3097;42.692;23.278;2023-01-26T13:50:22;94708.09;;;2.53;83.08
6132;BME280;3097;42.692;23.278;2023-01-26T13:52:47;94716.78;;;2.59;82.82
6132;BME280;3097;42.692;23.278;2023-01-26T13:55:23;94721.50;;;2.77;82.34
6132;BME280;3097;42.692;23.278;2023-01-26T13:57:48;94713.81;;;2.70;82.54
6132;BME280;3097;42.692;23.278;2023-01-26T14:00:14;94702.19;;;2.82;81.57
6132;BME280;3097;42.692;23.278;2023-01-26T14:02:47;94693.97;;;2.65;82.29
6132;BME280;3097;42.692;23.278;2023-01-26T14:05:20;94687.38;;;2.71;82.30
6132;BME280;3097;42.692;23.278;2023-01-26T14:07:48;94684.31;;;2.76;81.86
6132;BME280;3097;42.692;23.278;2023-01-26T14:10:18;94687.91;;;2.66;81.96
6132;BME280;3097;42.692;23.278;2023-01-26T14:12:53;94686.88;;;2.61;82.39
6132;BME280;3097;42.692;23.278;2023-01-26T14:15:27;94678.44;;;2.60;82.21
6132;BME280;3097;42.692;23.278;2023-01-26T14:17:58;94687.19;;;2.72;82.16
6132;BME280;3097;42.692;23.278;2023-01-26T14:20:26;94694.22;;;2.85;81.95
6132;BME280;3097;42.692;23.278;2023-01-26T14:23:10;94688.81;;;2.95;81.19
6132;BME280;3097;42.692;23.278;2023-01-26T14:25:40;94677.00;;;2.87;80.70
6132;BME280;3097;42.692;23.278;2023-01-26T14:28:14;94694.53;;;2.97;80.97
6132;BME280;3097;42.692;23.278;2023-01-26T14:30:40;94664.00;;;2.82;80.25
6132;BME280;3097;42.692;23.278;2023-01-26T14:33:13;94687.53;;;2.84;80.37
6132;BME280;3097;42.692;23.278;2023-01-26T14:35:40;94685.06;;;2.91;80.24
6132;BME280;3097;42.692;23.278;2023-01-26T14:41:07;94679.28;;;2.82;81.12
6132;BME280;3097;42.692;23.278;2023-01-26T14:43:33;94663.88;;;2.69;81.19
6132;BME280;3097;42.692;23.278;2023-01-26T14:46:04;94677.81;;;2.73;80.60
6132;BME280;3097;42.692;23.278;2023-01-26T14:48:37;94612.44;;;2.23;81.19
6132;BME280;3097;42.692;23.278;2023-01-26T14:51:04;94673.34;;;2.60;81.64
6132;BME280;3097;42.692;23.278;2023-01-26T14:53:31;94667.81;;;2.71;81.22
6132;BME280;3097;42.692;23.278;2023-01-26T14:55:56;94673.97;;;2.62;81.73